createdAt,value
2022-10-14T00:01:18.036Z,10.97
2022-10-14T00:03:46.280Z,11.47
2022-10-14T00:06:21.695Z,11.13
2022-10-14T00:08:49.740Z,10.17
2022-10-14T00:11:20.075Z,9.00
2022-10-14T00:13:48.303Z,10.57
2022-10-14T00:16:19.538Z,9.83
2022-10-14T00:18:47.856Z,10.00
2022-10-14T00:21:16.294Z,8.90
2022-10-14T00:23:44.378Z,10.67
2022-10-14T00:26:17.517Z,11.00
2022-10-14T00:28:45.668Z,9.93
2022-10-14T00:31:13.696Z,10.80
2022-10-14T00:33:43.238Z,9.83
2022-10-14T00:36:13.778Z,9.73
2022-10-14T00:38:41.925Z,10.00
2022-10-14T00:41:12.418Z,10.13
2022-10-14T00:43:57.329Z,9.93
2022-10-14T00:46:25.991Z,10.37
2022-10-14T00:48:56.613Z,10.57
2022-10-14T00:51:24.832Z,9.97
2022-10-14T00:53:52.948Z,10.73
2022-10-14T00:56:25.472Z,10.53
2022-10-14T00:58:54.131Z,10.10
2022-10-14T01:01:22.313Z,9.40
2022-10-14T01:03:50.346Z,11.57
2022-10-14T01:06:25.573Z,10.40
2022-10-14T01:09:00.197Z,10.60
2022-10-14T01:11:34.529Z,10.30
2022-10-14T01:14:15.075Z,9.73
2022-10-14T01:16:51.938Z,10.53
2022-10-14T01:19:53.918Z,10.70
2022-10-14T01:22:28.686Z,9.73
2022-10-14T01:25:07.158Z,9.40
2022-10-14T01:27:58.988Z,10.77
2022-10-14T01:30:31.966Z,10.00
2022-10-14T01:33:08.292Z,10.73
2022-10-14T01:35:45.317Z,10.23
2022-10-14T01:38:18.886Z,11.07
2022-10-14T01:40:51.959Z,9.00
2022-10-14T01:43:22.448Z,9.97
2022-10-14T01:45:53.098Z,9.07
2022-10-14T01:48:25.538Z,10.20
2022-10-14T01:50:56.407Z,9.60
2022-10-14T01:53:28.197Z,8.80
2022-10-14T01:55:57.369Z,9.47
2022-10-14T01:58:28.431Z,9.30
2022-10-14T02:00:58.046Z,9.07
2022-10-14T02:03:25.908Z,9.67
2022-10-14T02:05:59.155Z,8.70
2022-10-14T02:08:37.459Z,8.83
2022-10-14T02:11:12.403Z,9.67
2022-10-14T02:13:56.623Z,9.70
2022-10-14T02:16:34.506Z,9.30
2022-10-14T02:19:09.425Z,8.67
2022-10-14T02:21:43.082Z,9.43
2022-10-14T02:24:16.781Z,9.53
2022-10-14T02:26:45.948Z,9.63
2022-10-14T02:29:14.202Z,9.30
2022-10-14T02:31:45.281Z,9.17
2022-10-14T02:34:17.478Z,8.83
2022-10-14T02:36:47.250Z,9.30
2022-10-14T02:39:18.127Z,9.67
2022-10-14T02:41:46.913Z,9.43
2022-10-14T02:44:15.530Z,9.57
2022-10-14T02:46:44.796Z,9.80
2022-10-14T02:49:12.950Z,9.73
2022-10-14T02:51:40.973Z,9.20
2022-10-14T02:54:08.990Z,8.37
2022-10-14T02:56:36.922Z,7.47
2022-10-14T02:59:05.142Z,9.57
2022-10-14T03:01:37.309Z,9.50
2022-10-14T03:04:07.111Z,9.03
2022-10-14T03:06:35.411Z,9.17
2022-10-14T03:09:04.642Z,9.27
2022-10-14T03:11:32.798Z,8.90
2022-10-14T03:14:00.873Z,7.27
2022-10-14T03:16:28.827Z,9.07
2022-10-14T03:18:56.830Z,7.67
2022-10-14T03:21:26.257Z,9.60
2022-10-14T03:23:54.133Z,8.97
2022-10-14T03:26:22.261Z,7.30
2022-10-14T03:28:51.177Z,9.10
2022-10-14T03:31:19.759Z,8.07
2022-10-14T03:33:47.910Z,9.07
2022-10-14T03:36:15.984Z,8.50
2022-10-14T03:38:45.592Z,8.50
2022-10-14T03:41:13.981Z,8.83
2022-10-14T03:43:41.990Z,8.47
2022-10-14T03:46:10.072Z,8.17
2022-10-14T03:48:37.994Z,8.00
2022-10-14T03:51:06.034Z,10.37
2022-10-14T03:53:34.222Z,9.00
2022-10-14T03:56:03.751Z,8.50
2022-10-14T03:58:32.540Z,8.27
2022-10-14T04:01:00.582Z,8.50
2022-10-14T04:03:28.618Z,8.43
2022-10-14T04:05:56.862Z,8.40
2022-10-14T04:08:25.155Z,8.90
2022-10-14T04:10:54.148Z,9.80
2022-10-14T04:13:23.557Z,8.67
2022-10-14T04:15:51.546Z,8.73
2022-10-14T04:18:20.040Z,8.80
2022-10-14T04:20:48.387Z,9.40
2022-10-14T04:23:16.375Z,8.93
2022-10-14T04:25:44.368Z,8.47
2022-10-14T04:28:12.402Z,8.90
2022-10-14T04:30:41.810Z,8.17
2022-10-14T04:33:09.673Z,8.70
2022-10-14T04:35:37.642Z,8.47
2022-10-14T04:38:05.623Z,7.73
2022-10-14T04:40:34.084Z,8.17
2022-10-14T04:43:02.781Z,8.27
2022-10-14T04:45:30.784Z,7.73
2022-10-14T04:48:00.134Z,9.57
2022-10-14T04:50:28.558Z,7.93
2022-10-14T04:52:56.668Z,7.87
2022-10-14T04:55:24.705Z,9.00
2022-10-14T04:57:52.665Z,8.60
2022-10-14T05:00:20.771Z,9.00
2022-10-14T05:02:48.602Z,8.40
2022-10-14T05:05:17.953Z,7.67
2022-10-14T05:07:46.254Z,8.30
2022-10-14T05:10:14.564Z,8.00
2022-10-14T05:12:42.936Z,8.70
2022-10-14T05:15:11.829Z,9.07
2022-10-14T05:17:40.173Z,9.43
2022-10-14T05:20:08.993Z,8.07
2022-10-14T05:22:38.480Z,8.40
2022-10-14T05:25:07.695Z,9.50
2022-10-14T05:27:35.726Z,9.40
2022-10-14T05:30:04.099Z,9.77
2022-10-14T05:32:32.118Z,9.80
2022-10-14T05:35:00.181Z,9.10
2022-10-14T05:37:28.149Z,9.97
2022-10-14T05:39:58.337Z,9.27
2022-10-14T05:42:26.422Z,9.17
2022-10-14T05:44:54.357Z,9.00
2022-10-14T05:47:22.448Z,8.60
2022-10-14T05:49:50.877Z,7.97
2022-10-14T05:52:19.115Z,7.73
2022-10-14T05:54:47.353Z,7.60
2022-10-14T05:57:16.777Z,7.93
2022-10-14T05:59:44.854Z,7.63
2022-10-14T06:02:12.850Z,7.30
2022-10-14T06:04:42.556Z,8.13
2022-10-14T06:07:11.262Z,7.37
2022-10-14T06:09:39.470Z,8.97
2022-10-14T06:12:08.577Z,8.00
2022-10-14T06:14:38.685Z,8.57
2022-10-14T06:17:07.291Z,8.27
2022-10-14T06:19:35.222Z,7.37
2022-10-14T06:22:03.830Z,9.07
2022-10-14T06:24:31.913Z,7.00
2022-10-14T06:27:00.148Z,6.80
2022-10-14T06:29:31.678Z,7.47
2022-10-14T06:32:01.046Z,8.47
2022-10-14T06:34:29.050Z,8.53
2022-10-14T06:37:01.975Z,7.93
2022-10-14T06:39:30.384Z,7.97
2022-10-14T06:41:58.545Z,7.57
2022-10-14T06:44:26.584Z,6.80
2022-10-14T06:46:54.628Z,8.17
2022-10-14T06:49:23.994Z,8.20
2022-10-14T06:51:51.897Z,8.93
2022-10-14T06:54:20.062Z,8.27
2022-10-14T06:56:47.929Z,9.00
2022-10-14T06:59:16.686Z,8.47
2022-10-14T07:01:44.796Z,8.63
2022-10-14T07:04:12.816Z,9.40
2022-10-14T07:06:42.154Z,8.13
2022-10-14T07:09:10.191Z,9.33
2022-10-14T07:11:38.233Z,9.77
2022-10-14T07:14:06.304Z,9.00
2022-10-14T07:16:34.265Z,9.90
2022-10-14T07:19:02.331Z,9.20
2022-10-14T07:21:30.962Z,8.97
2022-10-14T07:24:00.430Z,8.50
2022-10-14T07:26:28.578Z,10.40
2022-10-14T07:28:56.660Z,9.97
2022-10-14T07:31:24.716Z,8.90
2022-10-14T07:33:52.954Z,10.40
2022-10-14T07:36:22.604Z,11.27
2022-10-14T07:38:51.325Z,9.87
2022-10-14T07:41:23.167Z,9.17
2022-10-14T07:43:53.329Z,9.83
2022-10-14T07:46:29.326Z,8.83
2022-10-14T07:48:58.161Z,9.00
2022-10-14T07:51:26.692Z,8.87
2022-10-14T07:53:54.849Z,11.30
2022-10-14T07:56:24.325Z,9.97
2022-10-14T07:58:52.642Z,10.30
2022-10-14T08:01:21.209Z,10.30
2022-10-14T08:03:49.966Z,10.60
2022-10-14T08:06:18.069Z,10.50
2022-10-14T08:08:46.160Z,10.70
2022-10-14T08:11:16.344Z,11.63
2022-10-14T08:13:46.559Z,10.27
2022-10-14T08:16:16.660Z,10.53
2022-10-14T08:18:44.848Z,10.50
2022-10-14T08:21:13.538Z,10.53
2022-10-14T08:23:41.578Z,12.13
2022-10-14T08:26:19.897Z,10.27
2022-10-14T08:28:49.699Z,12.77
2022-10-14T08:31:18.333Z,10.07
2022-10-14T08:33:46.468Z,11.37
2022-10-14T08:36:14.809Z,10.80
2022-10-14T08:38:42.965Z,10.03
2022-10-14T08:41:25.736Z,10.83
2022-10-14T08:44:14.607Z,11.23
2022-10-14T08:46:52.362Z,11.80
2022-10-14T08:49:26.175Z,10.93
2022-10-14T08:52:01.252Z,11.07
2022-10-14T08:54:37.795Z,11.83
2022-10-14T08:57:07.338Z,10.50
2022-10-14T08:59:42.714Z,11.73
2022-10-14T09:02:24.184Z,11.20
2022-10-14T09:04:52.199Z,12.00
2022-10-14T09:07:21.831Z,11.57
2022-10-14T09:09:52.594Z,11.17
2022-10-14T09:12:25.258Z,11.23
2022-10-14T09:15:04.036Z,11.53
2022-10-14T09:17:38.447Z,10.97
2022-10-14T09:20:17.908Z,10.60
2022-10-14T09:22:48.420Z,9.73
2022-10-14T09:25:17.699Z,9.50
2022-10-14T09:30:20.370Z,10.77
2022-10-14T09:32:51.041Z,9.57
2022-10-14T09:35:24.548Z,9.60
2022-10-14T09:37:53.352Z,9.80
2022-10-14T09:40:29.960Z,10.23
2022-10-14T09:43:00.762Z,8.83
2022-10-14T09:45:32.041Z,8.63
2022-10-14T09:48:07.207Z,7.83
2022-10-14T09:50:41.219Z,9.50
2022-10-14T09:53:16.496Z,8.57
2022-10-14T09:55:50.192Z,7.97
2022-10-14T09:58:24.666Z,9.07
2022-10-14T10:00:57.392Z,7.90
2022-10-14T10:03:28.072Z,8.70
2022-10-14T10:06:07.568Z,8.73
2022-10-14T10:08:37.382Z,9.73
2022-10-14T10:11:08.926Z,9.23
2022-10-14T10:13:41.544Z,8.80
2022-10-14T10:16:23.677Z,10.40
2022-10-14T10:18:52.996Z,9.33
2022-10-14T10:21:25.653Z,9.43
2022-10-14T10:23:57.134Z,9.17
2022-10-14T10:26:27.281Z,8.37
2022-10-14T10:28:58.261Z,8.53
2022-10-14T10:31:44.624Z,8.77
2022-10-14T10:34:40.449Z,8.63
2022-10-14T10:37:26.228Z,9.13
2022-10-14T10:40:14.680Z,8.87
2022-10-14T10:42:52.791Z,8.43
2022-10-14T10:45:36.880Z,8.20
2022-10-14T10:48:14.506Z,6.80
2022-10-14T10:50:49.077Z,7.90
2022-10-14T10:53:44.636Z,7.33
2022-10-14T10:56:21.109Z,6.73
2022-10-14T10:59:03.253Z,7.13
2022-10-14T11:01:40.325Z,6.90
2022-10-14T11:04:31.033Z,6.90
2022-10-14T11:07:28.019Z,6.37
2022-10-14T11:10:25.715Z,7.20
2022-10-14T11:13:00.056Z,5.77
2022-10-14T11:15:43.157Z,6.33
2022-10-14T11:18:15.698Z,6.10
2022-10-14T11:20:58.519Z,6.60
2022-10-14T11:23:59.906Z,6.27
2022-10-14T11:26:48.398Z,6.90
2022-10-14T11:29:39.524Z,6.17
2022-10-14T11:32:18.686Z,6.10
2022-10-14T11:34:58.693Z,6.55
2022-10-14T11:37:36.372Z,5.93
2022-10-14T11:40:15.977Z,5.80
2022-10-14T11:42:57.712Z,5.63
2022-10-14T11:45:41.688Z,7.17
2022-10-14T11:48:21.963Z,6.90
2022-10-14T11:50:54.537Z,6.07
2022-10-14T11:53:29.150Z,5.25
2022-10-14T11:56:05.279Z,5.40
2022-10-14T11:58:38.474Z,4.75
2022-10-14T12:01:08.020Z,5.20
2022-10-14T12:03:47.182Z,5.13
2022-10-14T12:06:20.937Z,5.00
2022-10-14T12:08:55.476Z,4.03
2022-10-14T12:11:31.065Z,4.03
2022-10-14T12:14:07.157Z,4.03
2022-10-14T12:16:35.544Z,3.80
2022-10-14T12:19:03.480Z,4.18
2022-10-14T12:21:36.729Z,3.65
2022-10-14T12:24:10.361Z,4.00
2022-10-14T12:26:53.860Z,3.28
2022-10-14T12:29:24.486Z,4.38
2022-10-14T12:32:08.839Z,3.55
2022-10-14T12:34:39.002Z,4.05
2022-10-14T12:37:45.903Z,3.17
2022-10-14T12:40:31.430Z,3.92
2022-10-14T12:43:05.426Z,3.60
2022-10-14T12:45:35.595Z,3.75
2022-10-14T12:48:08.088Z,2.50
2022-10-14T12:50:40.778Z,3.08
2022-10-14T12:53:17.114Z,3.05
2022-10-14T12:55:52.823Z,3.55
2022-10-14T12:58:27.414Z,3.10
2022-10-14T13:00:57.737Z,3.53
2022-10-14T13:03:28.252Z,2.95
2022-10-14T13:06:31.243Z,3.47
2022-10-14T13:09:42.014Z,2.88
2022-10-14T13:12:41.061Z,2.65
2022-10-14T13:15:34.276Z,3.42
2022-10-14T13:18:34.807Z,3.22
2022-10-14T13:21:04.480Z,3.58
2022-10-14T13:23:40.361Z,2.95
2022-10-14T13:26:20.364Z,3.58
2022-10-14T13:28:59.790Z,2.88
2022-10-14T13:31:32.773Z,3.25
2022-10-14T13:34:13.972Z,3.00
2022-10-14T13:36:52.744Z,2.65
2022-10-14T13:39:22.089Z,3.30
2022-10-14T13:41:50.748Z,3.10
2022-10-14T13:44:22.253Z,2.78
2022-10-14T13:46:51.440Z,2.53
2022-10-14T13:49:22.837Z,2.80
2022-10-14T13:51:52.912Z,3.33
2022-10-14T13:54:23.843Z,3.63
2022-10-14T14:02:40.501Z,2.75
2022-10-14T14:05:16.812Z,3.40
2022-10-14T14:10:39.127Z,3.40
2022-10-14T14:13:15.027Z,3.88
2022-10-14T14:15:43.539Z,3.55
2022-10-14T14:18:33.919Z,4.10
2022-10-14T14:21:14.377Z,3.15
2022-10-14T14:23:51.628Z,3.05
2022-10-14T14:26:21.433Z,2.55
2022-10-14T14:28:50.013Z,2.45
2022-10-14T14:31:20.646Z,1.98
2022-10-14T14:33:48.705Z,2.60
2022-10-14T14:36:27.716Z,2.30
2022-10-14T14:39:03.366Z,2.70
2022-10-14T14:41:33.965Z,2.70
2022-10-14T14:44:25.844Z,2.95
2022-10-14T14:46:57.574Z,3.33
2022-10-14T14:49:29.183Z,2.23
2022-10-14T14:51:57.910Z,2.40
2022-10-14T14:54:28.805Z,2.80
2022-10-14T14:57:04.274Z,2.60
2022-10-14T14:59:36.527Z,2.55
2022-10-14T15:02:13.581Z,2.17
2022-10-14T15:04:41.654Z,2.83
2022-10-14T15:07:20.083Z,2.70
2022-10-14T15:09:52.657Z,2.40
2022-10-14T15:12:24.510Z,2.37
2022-10-14T15:14:54.657Z,3.60
2022-10-14T15:17:28.941Z,2.73
2022-10-14T15:19:58.078Z,2.83
2022-10-14T15:22:33.340Z,2.35
2022-10-14T15:25:05.170Z,2.40
2022-10-14T15:27:46.732Z,2.10
2022-10-14T15:30:31.757Z,3.10
2022-10-14T15:33:01.664Z,3.60
2022-10-14T15:35:30.621Z,1.90
2022-10-14T15:37:59.045Z,2.30
2022-10-14T15:40:30.073Z,2.03
2022-10-14T15:43:00.143Z,2.57
2022-10-14T15:45:28.343Z,1.90
2022-10-14T15:50:27.161Z,2.20
2022-10-14T15:52:57.014Z,2.40
2022-10-14T15:55:26.760Z,2.73
2022-10-14T15:57:55.561Z,2.33
2022-10-14T16:00:26.024Z,2.20
2022-10-14T16:02:58.540Z,2.30
2022-10-14T16:05:27.542Z,1.97
2022-10-14T16:07:55.566Z,2.13
2022-10-14T16:10:28.224Z,2.17
2022-10-14T16:12:58.957Z,2.40
2022-10-14T16:15:40.705Z,2.33
2022-10-14T16:18:08.870Z,2.20
2022-10-14T16:20:37.072Z,2.50
2022-10-14T16:23:05.533Z,2.30
2022-10-14T16:25:38.967Z,2.87
2022-10-14T16:28:10.063Z,2.37
2022-10-14T16:30:44.067Z,4.23
2022-10-14T16:35:46.797Z,4.13
2022-10-14T16:38:14.755Z,3.10
2022-10-14T16:40:42.778Z,2.93
2022-10-14T16:43:11.139Z,2.17
2022-10-14T16:45:40.521Z,2.43
2022-10-14T16:48:08.500Z,2.47
2022-10-14T16:50:36.393Z,2.37
2022-10-14T16:53:33.448Z,2.23
2022-10-14T16:56:01.879Z,2.17
2022-10-14T16:58:29.760Z,2.40
2022-10-14T17:00:59.240Z,2.80
2022-10-14T17:03:27.208Z,2.57
2022-10-14T17:05:58.976Z,3.17
2022-10-14T17:08:26.939Z,2.87
2022-10-14T17:10:58.602Z,3.10
2022-10-14T17:13:26.763Z,2.43
2022-10-14T17:16:02.088Z,2.90
2022-10-14T17:18:34.571Z,2.67
2022-10-14T17:21:03.133Z,3.17
2022-10-14T17:23:32.023Z,3.33
2022-10-14T17:26:00.039Z,2.80
2022-10-14T17:28:28.051Z,3.43
2022-10-14T17:30:55.911Z,3.07
2022-10-14T17:33:26.162Z,4.23
2022-10-14T17:35:58.201Z,4.23
2022-10-14T17:38:26.801Z,4.80
2022-10-14T17:41:01.885Z,3.60
2022-10-14T17:43:29.830Z,3.30
2022-10-14T17:46:03.287Z,3.27
2022-10-14T17:48:33.308Z,4.43
2022-10-14T17:51:02.087Z,3.77
2022-10-14T17:53:30.529Z,4.43
2022-10-14T17:56:04.336Z,5.13
2022-10-14T17:58:32.389Z,5.07
2022-10-14T18:01:07.326Z,4.73
2022-10-14T18:03:38.623Z,3.97
2022-10-14T18:06:11.067Z,3.70
2022-10-14T18:08:40.310Z,4.37
2022-10-14T18:11:10.876Z,3.13
2022-10-14T18:16:14.737Z,3.87
2022-10-14T18:18:44.149Z,3.70
2022-10-14T18:21:12.276Z,3.07
2022-10-14T18:23:41.396Z,2.80
2022-10-14T18:26:13.391Z,3.97
2022-10-14T18:28:43.700Z,3.40
2022-10-14T18:31:13.902Z,3.00
2022-10-14T18:33:44.431Z,3.17
2022-10-14T18:36:14.441Z,3.40
2022-10-14T18:38:43.217Z,4.10
2022-10-14T18:41:13.166Z,3.60
2022-10-14T18:43:42.017Z,3.80
2022-10-14T18:46:13.795Z,4.00
2022-10-14T18:48:43.798Z,3.73
2022-10-14T18:51:12.808Z,3.17
2022-10-14T18:57:56.372Z,3.27
2022-10-14T19:00:26.861Z,2.40
2022-10-14T19:02:55.660Z,3.03
2022-10-14T19:05:26.785Z,3.50
2022-10-14T19:07:57.781Z,2.93
2022-10-14T19:10:25.740Z,3.37
2022-10-14T19:12:53.735Z,3.07
2022-10-14T19:15:25.598Z,3.90
2022-10-14T19:17:56.153Z,3.07
2022-10-14T19:20:26.013Z,3.10
2022-10-14T19:22:56.653Z,3.23
2022-10-14T19:25:24.945Z,3.10
2022-10-14T19:27:53.267Z,3.03
2022-10-14T19:30:21.299Z,3.13
2022-10-14T19:32:49.714Z,2.43
2022-10-14T19:37:53.094Z,3.33
2022-10-14T19:40:23.618Z,4.23
2022-10-14T19:42:51.970Z,3.53
2022-10-14T19:45:20.348Z,3.03
2022-10-14T19:47:48.208Z,3.50
2022-10-14T19:50:16.366Z,3.40
2022-10-14T19:52:44.316Z,3.17
2022-10-14T19:55:13.734Z,3.00
2022-10-14T19:57:41.676Z,2.37
2022-10-14T20:00:11.337Z,2.60
2022-10-14T20:02:39.320Z,3.37
2022-10-14T20:05:07.713Z,2.93
2022-10-14T20:07:35.612Z,3.23
2022-10-14T20:10:03.543Z,3.03
2022-10-14T20:12:32.987Z,3.40
2022-10-14T20:15:00.936Z,3.17
2022-10-14T20:17:29.021Z,2.77
2022-10-14T20:19:57.049Z,3.30
2022-10-14T20:22:25.263Z,2.60
2022-10-14T20:24:53.509Z,3.50
2022-10-14T20:27:21.656Z,3.63
2022-10-14T20:29:51.314Z,3.20
2022-10-14T20:32:19.455Z,3.07
2022-10-14T20:34:48.091Z,3.27
2022-10-14T20:37:15.993Z,2.77
2022-10-14T20:39:44.028Z,2.83
2022-10-14T20:42:12.068Z,3.30
2022-10-14T20:44:40.112Z,2.87
2022-10-14T20:47:10.378Z,3.50
2022-10-14T20:49:38.566Z,3.60
2022-10-14T20:52:09.529Z,3.20
2022-10-14T20:54:38.014Z,3.30
2022-10-14T20:57:07.594Z,2.60
2022-10-14T20:59:36.112Z,2.70
2022-10-14T21:02:04.115Z,2.20
2022-10-14T21:04:33.419Z,2.70
2022-10-14T21:07:01.513Z,2.60
2022-10-14T21:09:29.758Z,4.50
2022-10-14T21:11:57.708Z,3.50
2022-10-14T21:14:25.762Z,3.87
2022-10-14T21:16:53.730Z,3.93
2022-10-14T21:19:22.050Z,4.60
2022-10-14T21:21:51.298Z,3.57
2022-10-14T21:24:20.739Z,3.13
2022-10-14T21:26:50.591Z,4.67
2022-10-14T21:29:18.902Z,4.30
2022-10-14T21:31:47.013Z,4.23
2022-10-14T21:34:15.295Z,4.30
2022-10-14T21:36:43.502Z,4.93
2022-10-14T21:39:15.705Z,4.07
2022-10-14T21:41:44.152Z,4.80
2022-10-14T21:44:15.612Z,4.53
2022-10-14T21:46:43.517Z,4.23
2022-10-14T21:49:12.217Z,5.37
2022-10-14T21:51:40.629Z,9.43
2022-10-14T21:54:10.946Z,7.70
2022-10-14T21:56:40.429Z,6.47
2022-10-14T21:59:08.612Z,6.80
2022-10-14T22:01:36.651Z,4.83
2022-10-14T22:04:06.507Z,4.97
2022-10-14T22:06:36.353Z,4.67
2022-10-14T22:09:06.751Z,5.40
2022-10-14T22:11:37.363Z,3.63
2022-10-14T22:14:09.451Z,3.83
2022-10-14T22:16:37.434Z,3.70
2022-10-14T22:19:06.693Z,3.73
2022-10-14T22:21:36.561Z,3.47
2022-10-14T22:24:05.453Z,3.47
2022-10-14T22:26:34.229Z,4.20
2022-10-14T22:29:04.460Z,3.90
2022-10-14T22:31:35.021Z,3.80
2022-10-14T22:34:04.440Z,3.20
2022-10-14T22:36:33.561Z,4.00
2022-10-14T22:39:03.018Z,3.70
2022-10-14T22:41:35.206Z,3.57
2022-10-14T22:44:05.398Z,4.23
2022-10-14T22:46:36.915Z,4.30
2022-10-14T22:49:04.810Z,4.73
2022-10-14T22:51:35.477Z,4.53
2022-10-14T22:54:03.371Z,4.67
2022-10-14T22:56:32.295Z,4.10
2022-10-14T22:59:01.825Z,4.07
2022-10-14T23:01:30.703Z,4.13
2022-10-14T23:04:01.038Z,3.87
2022-10-14T23:06:30.101Z,4.20
2022-10-14T23:09:00.125Z,3.97
2022-10-14T23:11:29.617Z,4.73
2022-10-14T23:14:00.205Z,4.13
2022-10-14T23:16:31.292Z,4.27
2022-10-14T23:19:00.694Z,5.27
2022-10-14T23:21:30.813Z,4.87
2022-10-14T23:24:00.995Z,5.40
2022-10-14T23:26:31.633Z,4.97
2022-10-14T23:29:00.615Z,5.13
2022-10-14T23:31:31.213Z,6.33
2022-10-14T23:34:01.799Z,6.63
2022-10-14T23:36:29.766Z,7.03
2022-10-14T23:38:58.589Z,6.20
2022-10-14T23:41:26.659Z,5.97
2022-10-14T23:43:56.326Z,5.90
2022-10-14T23:46:24.992Z,7.23
2022-10-14T23:49:07.025Z,6.00
2022-10-14T23:51:43.543Z,6.20
2022-10-14T23:54:11.576Z,6.27
2022-10-14T23:56:39.914Z,6.47
2022-10-14T23:59:07.934Z,6.73
